Airfield :
LOGIN :

Register | Disclaimer

   EN    FR    IT 

 










Legend :    VFR   Marginal VFR   IFR   Intensive IFR   Very Intensive IFR
Visi :
Ceiling :
>= 8 km
>= 3000ft
5 to 8 km
1000 to 3000 ft
1500m to 5 km
500 to 1000 ft
800 to 1500m
200 to 500 ft
< 800m
< 200 ft
Symbols :   Thunderstorms  Fog  Heavy snow  Heavy precipitations  Wind > 20 kt
SIGMETs :     Misc.  Thunderstorms  Icing  Turbulence  Mountain Waves  Volcanic Ashes






- Airport Elevation : 325 ft
- IATA code : BES


LFRB - Brest

CURRENT METAR :
  • 271800Z AUTO 24018KT 9999 ///CB 08/04 Q0999 TEMPO 25025G45KT TSRAGS BKN010CB

EXPIRED METARs :
  • 271730Z AUTO 24021G31KT 9999 SCT027/// BKN040/// BKN080/// ///CB 08/05 Q0999 TEMPO 25025G45KT TSRAGS BKN010CB
  • 271700Z AUTO 23016G26KT 9999 -RA BKN023/// BKN034/// OVC040/// ///CB 09/07 Q0999 TEMPO 25025G45KT TSRAGS BKN010CB
  • 271630Z AUTO 23013KT 9999 FEW020/// SCT026/// BKN031/// ///CB 09/07 Q0999 TEMPO 25025G45KT TSRAGS BKN010CB
  • 271600Z AUTO 23016KT 9999 BKN020 BKN044 BKN150 09/07 Q1000 TEMPO 25025G45KT TSRAGS BKN010CB
  • 271530Z AUTO 22014KT 9999 FEW024 SCT150 09/06 Q1000 TEMPO 25025G45KT TSRAGS BKN010CB
  • 271500Z AUTO 22013KT 9999 FEW046 09/06 Q1000 TEMPO 25025G45KT TSRAGS BKN010CB

TAF TAF LFRB
Valid from the 27 at 12:00 until the 28 at 18:00 UTC


271100Z 2712/2818 20013KT 9999 -RA BKN041 OVC058
TEMPO 2712/2812 23020G35KT SHRA BKN010TCU
TEMPO 2712/2715 4000 +SHRA OVC010TCU
PROB40
TEMPO 2714/2802 25025G45KT TSRAGS BKN010CB
TEMPO 2811/2818 28020G30KT 4000 SHRAGS FEW014CB BKN020TCU
ATIS : +33 2 98 32 02 71



MET'MAP, your aeronautical weather chart ! - Copyright ORBIFLY December 2007 - Disclaimer

ORBIFLY MET'MAP TEAM :

Programming & Development : Alexandra Zaïnal
Concept & original design : Baudouin d'Aumeries
Assistance for programming : Marc-Olivier Méhu
Technical & hardware support : Manuel Goepfert

Contact : metmap@orbifly.com




SOURCES & CREDITS :

   NOAA